Time;durP1;ratioP1;P1;durP2;ratioP2;P2;SDS_P1;SDS_P2;PMS_P1;PMS_P2;Temp;Humidity;BMP_temperature;BMP_pressure;BME280_temperature;BME280_humidity;BME280_pressure;Samples;Min_cycle;Max_cycle;Signal;HPM_P1;HPM_P2
2022/12/03 00:00:37;;;;;;;24.00;13.70;;;;;;;;;;5072340;28;20024;-60
2022/12/03 00:03:03;;;;;;;24.95;13.85;;;;;;;;;;5072306;28;20028;-61
2022/12/03 00:05:28;;;;;;;25.00;12.70;;;;;;;;;;5072118;28;20104;-61
2022/12/03 00:07:54;;;;;;;26.38;13.25;;;;;;;;;;5072473;28;20028;-64
2022/12/03 00:10:19;;;;;;;24.63;13.05;;;;;;;;;;5072194;28;20021;-60
2022/12/03 00:12:45;;;;;;;25.05;14.15;;;;;;;;;;5072150;28;20028;-60
2022/12/03 00:15:10;;;;;;;24.30;12.65;;;;;;;;;;5072117;28;20032;-61
2022/12/03 00:17:36;;;;;;;28.45;13.65;;;;;;;;;;5071831;28;20123;-60
2022/12/03 00:20:04;;;;;;;24.52;13.45;;;;;;;;;;5072352;28;20391;-60
2022/12/03 00:22:30;;;;;;;21.88;12.35;;;;;;;;;;5072355;28;20021;-61
2022/12/03 00:24:55;;;;;;;25.48;13.23;;;;;;;;;;5082545;28;20499;-60
2022/12/03 00:27:21;;;;;;;25.48;14.25;;;;;;;;;;5080683;28;20067;-61
2022/12/03 00:29:47;;;;;;;23.45;12.45;;;;;;;;;;5074499;28;20399;-61
2022/12/03 00:32:13;;;;;;;26.90;12.35;;;;;;;;;;5072000;28;20099;-61
2022/12/03 00:34:38;;;;;;;22.98;12.60;;;;;;;;;;5072134;28;20457;-61
2022/12/03 00:37:04;;;;;;;23.83;13.85;;;;;;;;;;5071994;28;20036;-61
2022/12/03 00:39:29;;;;;;;21.50;12.40;;;;;;;;;;5071937;28;20383;-61
2022/12/03 00:41:56;;;;;;;22.67;13.77;;;;;;;;;;5071747;28;20016;-61
2022/12/03 00:44:21;;;;;;;25.00;13.10;;;;;;;;;;5053870;28;20035;-61
2022/12/03 00:46:47;;;;;;;25.98;12.90;;;;;;;;;;5071783;28;20099;-63
2022/12/03 00:49:12;;;;;;;25.95;12.18;;;;;;;;;;5071738;28;20024;-61
2022/12/03 00:51:38;;;;;;;24.88;12.55;;;;;;;;;;5071916;28;20042;-60
2022/12/03 00:54:03;;;;;;;25.10;13.43;;;;;;;;;;5071729;28;20025;-61
2022/12/03 00:56:29;;;;;;;23.00;12.30;;;;;;;;;;5071822;28;20029;-61
2022/12/03 00:58:54;;;;;;;21.85;12.70;;;;;;;;;;5066050;28;20407;-61
2022/12/03 01:01:20;;;;;;;22.10;12.23;;;;;;;;;;5069135;28;20468;-61
2022/12/03 01:03:45;;;;;;;22.77;12.82;;;;;;;;;;5070409;28;20035;-61
2022/12/03 01:06:11;;;;;;;21.08;12.07;;;;;;;;;;5070805;28;20032;-61
2022/12/03 01:08:36;;;;;;;24.75;12.55;;;;;;;;;;5069582;28;20492;-60
2022/12/03 01:11:02;;;;;;;19.08;11.32;;;;;;;;;;5070545;28;20032;-60
2022/12/03 01:13:28;;;;;;;19.45;12.05;;;;;;;;;;5070900;28;20114;-60
2022/12/03 01:15:53;;;;;;;22.75;13.27;;;;;;;;;;5071699;28;20582;-61
2022/12/03 01:18:19;;;;;;;21.33;12.57;;;;;;;;;;5074094;28;20481;-61
2022/12/03 01:20:44;;;;;;;25.98;13.15;;;;;;;;;;5075087;28;20025;-60
2022/12/03 01:23:10;;;;;;;19.02;11.77;;;;;;;;;;5075086;28;20109;-64
2022/12/03 01:25:35;;;;;;;23.45;12.85;;;;;;;;;;5075086;28;20593;-63
2022/12/03 01:28:01;;;;;;;23.55;12.02;;;;;;;;;;5074576;28;20032;-60
2022/12/03 01:30:26;;;;;;;18.92;11.70;;;;;;;;;;5075201;28;20021;-61
2022/12/03 01:32:52;;;;;;;19.65;12.15;;;;;;;;;;5074862;28;20066;-62
2022/12/03 01:35:17;;;;;;;20.08;12.30;;;;;;;;;;5074758;28;20074;-62
2022/12/03 01:37:43;;;;;;;19.50;11.88;;;;;;;;;;5056932;28;20024;-61
2022/12/03 01:40:14;;;;;;;22.60;12.32;;;;;;;;;;5074760;28;20024;-60
2022/12/03 01:42:41;;;;;;;22.08;12.45;;;;;;;;;;5075003;28;20020;-61
2022/12/03 01:45:20;;;;;;;20.75;12.65;;;;;;;;;;5074649;28;20486;-61
2022/12/03 01:47:46;;;;;;;22.00;12.40;;;;;;;;;;5074664;28;20040;-60
2022/12/03 01:50:32;;;;;;;21.98;10.82;;;;;;;;;;5074796;28;20062;-61
2022/12/03 01:53:01;;;;;;;19.90;12.10;;;;;;;;;;5074541;28;20028;-61
2022/12/03 01:55:28;;;;;;;22.17;11.68;;;;;;;;;;5074611;28;20024;-61
2022/12/03 01:57:57;;;;;;;18.75;11.55;;;;;;;;;;5074459;28;20539;-61
2022/12/03 02:00:28;;;;;;;21.40;12.13;;;;;;;;;;5074613;28;20025;-61
2022/12/03 02:03:06;;;;;;;22.75;12.80;;;;;;;;;;5056376;28;20024;-61
2022/12/03 02:05:32;;;;;;;22.38;11.95;;;;;;;;;;5074321;28;20028;-61
2022/12/03 02:07:59;;;;;;;19.77;12.18;;;;;;;;;;5074459;28;20112;-61
2022/12/03 02:10:32;;;;;;;20.23;10.98;;;;;;;;;;5074199;28;20032;-62
2022/12/03 02:13:15;;;;;;;22.65;12.45;;;;;;;;;;5074207;28;20029;-60
2022/12/03 02:15:41;;;;;;;19.83;12.07;;;;;;;;;;5056075;28;20025;-61
2022/12/03 02:18:08;;;;;;;20.13;12.27;;;;;;;;;;5074035;28;20058;-61
2022/12/03 02:20:41;;;;;;;21.00;12.23;;;;;;;;;;5074008;28;20028;-61
2022/12/03 02:23:28;;;;;;;21.60;12.32;;;;;;;;;;5074032;28;20028;-60
2022/12/03 02:26:09;;;;;;;18.50;10.95;;;;;;;;;;5073033;28;20051;-60
2022/12/03 02:28:36;;;;;;;19.92;11.52;;;;;;;;;;5072746;28;20028;-61
2022/12/03 02:31:04;;;;;;;21.15;12.18;;;;;;;;;;5073839;28;20375;-61
2022/12/03 02:33:30;;;;;;;19.55;11.60;;;;;;;;;;5073803;28;20108;-61
2022/12/03 02:35:56;;;;;;;19.15;11.73;;;;;;;;;;5073553;28;20035;-60
2022/12/03 02:38:25;;;;;;;17.70;11.80;;;;;;;;;;5073544;28;20029;-64
2022/12/03 02:40:55;;;;;;;20.77;10.68;;;;;;;;;;5073695;28;20028;-63
2022/12/03 02:43:22;;;;;;;18.42;10.85;;;;;;;;;;5073610;28;20476;-61
2022/12/03 02:45:52;;;;;;;20.15;12.27;;;;;;;;;;5073573;28;20064;-63
2022/12/03 02:48:38;;;;;;;19.60;11.82;;;;;;;;;;5073514;28;20476;-61
2022/12/03 02:51:07;;;;;;;18.73;12.15;;;;;;;;;;5073510;28;20032;-61
2022/12/03 02:53:37;;;;;;;19.10;11.25;;;;;;;;;;5073607;28;20059;-61
2022/12/03 02:56:03;;;;;;;19.75;12.00;;;;;;;;;;5073347;28;20480;-61
2022/12/03 02:58:31;;;;;;;18.88;11.73;;;;;;;;;;5073266;28;20107;-61
2022/12/03 03:00:57;;;;;;;21.10;12.20;;;;;;;;;;5073217;28;20488;-62
2022/12/03 03:03:26;;;;;;;17.23;11.13;;;;;;;;;;5073188;28;20029;-61
2022/12/03 03:05:55;;;;;;;19.08;12.20;;;;;;;;;;5073148;28;20025;-61
2022/12/03 03:08:22;;;;;;;18.02;10.98;;;;;;;;;;5073040;28;20035;-61
2022/12/03 03:10:48;;;;;;;21.55;11.85;;;;;;;;;;5055298;28;20028;-60
2022/12/03 03:13:17;;;;;;;20.02;12.15;;;;;;;;;;5072987;28;20430;-61
2022/12/03 03:15:44;;;;;;;17.98;11.40;;;;;;;;;;5072937;28;20024;-60
2022/12/03 03:18:11;;;;;;;18.45;11.60;;;;;;;;;;5072680;28;20049;-61
2022/12/03 03:20:37;;;;;;;17.55;11.20;;;;;;;;;;5072808;28;20035;-61
2022/12/03 03:23:23;;;;;;;18.05;10.88;;;;;;;;;;5072700;28;20024;-61
2022/12/03 03:25:52;;;;;;;19.33;11.85;;;;;;;;;;5072496;28;20037;-61
2022/12/03 03:28:18;;;;;;;22.58;11.48;;;;;;;;;;5054807;28;20479;-61
2022/12/03 03:30:45;;;;;;;20.48;11.43;;;;;;;;;;5072932;28;20113;-60
2022/12/03 03:33:12;;;;;;;18.08;11.60;;;;;;;;;;5072648;28;20070;-61
2022/12/03 03:35:38;;;;;;;19.33;11.80;;;;;;;;;;5072717;28;20427;-61
2022/12/03 03:38:05;;;;;;;18.77;11.40;;;;;;;;;;5072420;28;20115;-60
2022/12/03 03:40:31;;;;;;;18.90;11.88;;;;;;;;;;5072456;28;20021;-63
2022/12/03 03:42:58;;;;;;;20.88;12.10;;;;;;;;;;5072540;28;20035;-62
2022/12/03 03:45:23;;;;;;;17.30;11.43;;;;;;;;;;5072440;28;20067;-61
2022/12/03 03:47:49;;;;;;;19.05;11.35;;;;;;;;;;5072499;28;20044;-61
2022/12/03 03:50:15;;;;;;;18.67;11.32;;;;;;;;;;5072705;28;20050;-61
2022/12/03 03:52:42;;;;;;;16.77;11.35;;;;;;;;;;5072722;28;20024;-61
2022/12/03 03:55:10;;;;;;;21.67;12.32;;;;;;;;;;5072318;28;20680;-61
2022/12/03 03:57:35;;;;;;;18.08;11.43;;;;;;;;;;5072434;28;20057;-60
2022/12/03 04:00:03;;;;;;;18.23;11.52;;;;;;;;;;5072371;28;20056;-61
2022/12/03 04:02:31;;;;;;;20.50;11.73;;;;;;;;;;5072387;28;20046;-61
2022/12/03 04:04:56;;;;;;;17.63;10.57;;;;;;;;;;5072367;28;20028;-61
2022/12/03 04:07:22;;;;;;;19.05;11.52;;;;;;;;;;5072270;28;20082;-61
2022/12/03 04:09:47;;;;;;;20.40;11.27;;;;;;;;;;5072230;28;20103;-61
2022/12/03 04:14:57;;;;;;;19.13;11.00;;;;;;;;;;5072587;28;20043;-61
2022/12/03 04:17:23;;;;;;;17.73;11.00;;;;;;;;;;5071955;28;20028;-61
2022/12/03 04:19:49;;;;;;;19.33;11.07;;;;;;;;;;5072403;28;20401;-60
2022/12/03 04:30:27;;;;;;;16.80;10.93;;;;;;;;;;5072417;28;20480;-60
2022/12/03 04:35:43;;;;;;;19.58;11.35;;;;;;;;;;5072036;28;20053;-61
2022/12/03 04:38:14;;;;;;;16.33;11.00;;;;;;;;;;5072055;28;20051;-60
2022/12/03 04:43:24;;;;;;;14.98;10.60;;;;;;;;;;5072260;28;20132;-60
2022/12/03 04:45:50;;;;;;;19.83;11.32;;;;;;;;;;5072223;28;20052;-61
2022/12/03 04:48:16;;;;;;;18.60;11.15;;;;;;;;;;5072111;28;20476;-61
2022/12/03 04:50:42;;;;;;;17.17;10.63;;;;;;;;;;5055052;28;20461;-61
2022/12/03 04:53:07;;;;;;;18.50;10.70;;;;;;;;;;5075883;28;20113;-63
2022/12/03 04:55:33;;;;;;;20.98;11.32;;;;;;;;;;5075457;28;20112;-61
2022/12/03 04:57:58;;;;;;;18.85;10.73;;;;;;;;;;5075511;28;20021;-61
2022/12/03 05:00:24;;;;;;;17.88;11.00;;;;;;;;;;5057546;28;20090;-61
2022/12/03 05:02:50;;;;;;;17.30;10.80;;;;;;;;;;5075486;28;20049;-61
2022/12/03 05:05:16;;;;;;;18.33;11.55;;;;;;;;;;5075632;28;20066;-61
2022/12/03 05:07:41;;;;;;;18.00;10.82;;;;;;;;;;5075283;28;20021;-61
2022/12/03 05:10:08;;;;;;;16.73;10.38;;;;;;;;;;5075640;28;20032;-60
2022/12/03 05:12:34;;;;;;;19.52;10.95;;;;;;;;;;5057372;28;20040;-61
2022/12/03 05:14:59;;;;;;;18.77;10.95;;;;;;;;;;5075267;28;20387;-62
2022/12/03 05:17:25;;;;;;;16.52;10.38;;;;;;;;;;5075166;28;20068;-61
2022/12/03 05:22:34;;;;;;;17.65;10.80;;;;;;;;;;5075269;28;20075;-61
2022/12/03 05:25:00;;;;;;;16.27;11.02;;;;;;;;;;5075231;28;20024;-62
2022/12/03 05:27:26;;;;;;;16.70;11.07;;;;;;;;;;5075080;28;20016;-61
2022/12/03 05:29:52;;;;;;;16.20;10.52;;;;;;;;;;5074983;28;20032;-62
2022/12/03 05:32:18;;;;;;;16.17;10.65;;;;;;;;;;5074981;28;20028;-61
2022/12/03 05:34:43;;;;;;;14.98;9.85;;;;;;;;;;5056968;28;20495;-61
2022/12/03 05:37:09;;;;;;;18.08;10.75;;;;;;;;;;5075133;28;20036;-60
2022/12/03 05:39:35;;;;;;;16.40;10.40;;;;;;;;;;5074914;28;20383;-61
2022/12/03 05:44:44;;;;;;;14.13;9.40;;;;;;;;;;5074887;28;20074;-60
2022/12/03 05:47:10;;;;;;;17.40;10.10;;;;;;;;;;5074957;28;20029;-61
2022/12/03 05:49:36;;;;;;;15.35;9.70;;;;;;;;;;5074720;28;20040;-61
2022/12/03 05:52:01;;;;;;;19.80;11.23;;;;;;;;;;5074593;28;20024;-61
2022/12/03 05:54:27;;;;;;;14.90;10.50;;;;;;;;;;5074896;28;20109;-61
2022/12/03 05:56:52;;;;;;;14.77;9.98;;;;;;;;;;5074543;28;20051;-63
2022/12/03 05:59:18;;;;;;;14.43;10.10;;;;;;;;;;5074696;28;20024;-61
2022/12/03 06:01:43;;;;;;;16.05;10.13;;;;;;;;;;5074440;28;20484;-61
2022/12/03 06:04:09;;;;;;;17.40;10.40;;;;;;;;;;5074351;28;20498;-61
2022/12/03 06:06:34;;;;;;;16.92;10.75;;;;;;;;;;5074650;28;20125;-63
2022/12/03 06:09:00;;;;;;;16.17;10.82;;;;;;;;;;5056598;28;20107;-61
2022/12/03 06:11:28;;;;;;;18.40;11.07;;;;;;;;;;5074385;28;20048;-61
2022/12/03 06:13:54;;;;;;;16.63;9.93;;;;;;;;;;5056698;28;20039;-63
2022/12/03 06:16:20;;;;;;;16.23;10.52;;;;;;;;;;5074337;28;20028;-61
2022/12/03 06:18:45;;;;;;;17.63;10.40;;;;;;;;;;5074001;28;20507;-63
2022/12/03 06:21:11;;;;;;;15.90;10.32;;;;;;;;;;5074098;28;20556;-63
2022/12/03 06:23:43;;;;;;;15.80;10.50;;;;;;;;;;5074027;28;20106;-64
2022/12/03 06:26:12;;;;;;;17.02;10.02;;;;;;;;;;5074059;28;20032;-60
2022/12/03 06:28:40;;;;;;;16.33;10.23;;;;;;;;;;5073926;28;20017;-61
2022/12/03 06:31:05;;;;;;;18.00;10.32;;;;;;;;;;5073956;28;20052;-63
2022/12/03 06:33:31;;;;;;;16.50;10.38;;;;;;;;;;5073900;28;20048;-62
2022/12/03 06:35:57;;;;;;;15.73;10.10;;;;;;;;;;5073404;28;20033;-61
2022/12/03 06:38:22;;;;;;;15.57;10.13;;;;;;;;;;5055789;28;20028;-61
2022/12/03 06:40:48;;;;;;;14.82;10.02;;;;;;;;;;5073779;28;20016;-62
2022/12/03 06:43:16;;;;;;;14.23;9.77;;;;;;;;;;5073727;28;20079;-61
2022/12/03 06:45:41;;;;;;;16.52;10.35;;;;;;;;;;5073585;28;20082;-60
2022/12/03 06:48:07;;;;;;;17.60;10.20;;;;;;;;;;5073466;28;20024;-63
2022/12/03 06:50:32;;;;;;;14.07;9.88;;;;;;;;;;5073470;28;20036;-61
2022/12/03 06:52:58;;;;;;;15.73;10.18;;;;;;;;;;5073435;28;20042;-61
2022/12/03 06:55:24;;;;;;;14.70;9.73;;;;;;;;;;5073341;28;20107;-60
2022/12/03 06:57:49;;;;;;;17.52;11.10;;;;;;;;;;5073320;28;20028;-63
2022/12/03 07:00:15;;;;;;;16.05;10.55;;;;;;;;;;5073471;28;20488;-62
2022/12/03 07:02:43;;;;;;;15.77;10.85;;;;;;;;;;5073342;28;20052;-61
2022/12/03 07:05:09;;;;;;;15.52;10.18;;;;;;;;;;5073304;28;20032;-62
2022/12/03 07:07:34;;;;;;;14.20;9.38;;;;;;;;;;5055186;28;20496;-61
2022/12/03 07:10:00;;;;;;;13.25;9.70;;;;;;;;;;5055366;28;20032;-61
2022/12/03 07:12:27;;;;;;;14.57;10.00;;;;;;;;;;5073153;28;20032;-60
2022/12/03 07:14:53;;;;;;;15.75;9.65;;;;;;;;;;5072703;28;20031;-61
2022/12/03 07:17:18;;;;;;;15.73;9.82;;;;;;;;;;5072907;28;20376;-62
2022/12/03 07:19:44;;;;;;;15.07;9.90;;;;;;;;;;5072987;28;20033;-63
2022/12/03 07:22:09;;;;;;;16.75;10.13;;;;;;;;;;5073139;28;20037;-61
2022/12/03 07:24:35;;;;;;;14.70;10.10;;;;;;;;;;5073166;28;20024;-61
2022/12/03 07:27:00;;;;;;;15.65;10.10;;;;;;;;;;5072877;28;20089;-64
2022/12/03 07:29:26;;;;;;;14.93;9.80;;;;;;;;;;5072827;28;20086;-61
2022/12/03 07:31:52;;;;;;;16.33;9.88;;;;;;;;;;5072771;28;20020;-64
2022/12/03 07:34:18;;;;;;;14.93;9.65;;;;;;;;;;5072755;28;20024;-61
2022/12/03 07:36:43;;;;;;;15.13;10.30;;;;;;;;;;5072557;28;20044;-63
2022/12/03 07:39:09;;;;;;;14.38;10.02;;;;;;;;;;5072955;28;20048;-62
2022/12/03 07:41:35;;;;;;;15.25;9.60;;;;;;;;;;5072663;28;20480;-61
2022/12/03 07:44:00;;;;;;;14.63;9.57;;;;;;;;;;5072613;28;20028;-61
2022/12/03 07:46:26;;;;;;;14.50;9.57;;;;;;;;;;5072437;28;20044;-61
2022/12/03 07:48:51;;;;;;;14.45;9.45;;;;;;;;;;5072501;28;20067;-62
2022/12/03 07:51:17;;;;;;;16.30;10.30;;;;;;;;;;5072504;28;20112;-61
2022/12/03 07:53:42;;;;;;;14.15;9.68;;;;;;;;;;5072755;28;20025;-61
2022/12/03 07:56:08;;;;;;;15.48;9.82;;;;;;;;;;5072293;28;20111;-61
2022/12/03 07:58:34;;;;;;;14.88;10.45;;;;;;;;;;5072274;28;20024;-61
2022/12/03 08:01:00;;;;;;;14.68;9.75;;;;;;;;;;5054308;28;20039;-61
2022/12/03 08:03:25;;;;;;;13.23;9.15;;;;;;;;;;5072308;28;20020;-60
2022/12/03 08:05:51;;;;;;;13.93;9.55;;;;;;;;;;5072200;28;20039;-61
2022/12/03 08:08:17;;;;;;;15.57;9.80;;;;;;;;;;5072302;28;20021;-61
2022/12/03 08:10:42;;;;;;;15.60;10.23;;;;;;;;;;5072162;28;20020;-64
2022/12/03 08:13:16;;;;;;;14.52;9.65;;;;;;;;;;5072112;28;20380;-64
2022/12/03 08:15:43;;;;;;;14.48;9.73;;;;;;;;;;5072019;28;20029;-64
2022/12/03 08:18:17;;;;;;;13.77;9.63;;;;;;;;;;5071905;28;20048;-64
2022/12/03 08:20:45;;;;;;;15.07;10.05;;;;;;;;;;5072016;28;20035;-62
2022/12/03 08:23:22;;;;;;;13.98;9.05;;;;;;;;;;5072360;28;20059;-61
2022/12/03 08:25:49;;;;;;;15.32;9.93;;;;;;;;;;5074778;28;20513;-61
2022/12/03 08:28:22;;;;;;;16.30;10.55;;;;;;;;;;5076328;28;20051;-62
2022/12/03 08:31:11;;;;;;;17.25;10.18;;;;;;;;;;5085868;28;20020;-62
2022/12/03 08:33:38;;;;;;;14.48;9.82;;;;;;;;;;5073898;28;20392;-63
2022/12/03 08:36:19;;;;;;;14.35;9.52;;;;;;;;;;5084910;28;20079;-63
2022/12/03 08:39:00;;;;;;;14.20;9.95;;;;;;;;;;5056123;28;20068;-64
2022/12/03 08:44:19;;;;;;;13.95;9.65;;;;;;;;;;5055878;28;20380;-62
2022/12/03 08:46:51;;;;;;;15.00;9.93;;;;;;;;;;5055781;28;20033;-63
2022/12/03 08:49:19;;;;;;;13.70;9.57;;;;;;;;;;5055743;28;20049;-62
2022/12/03 08:51:45;;;;;;;15.73;9.82;;;;;;;;;;5055652;28;20491;-61
2022/12/03 08:54:13;;;;;;;13.95;9.23;;;;;;;;;;5055879;28;20029;-61
2022/12/03 08:56:40;;;;;;;14.10;9.95;;;;;;;;;;5055450;28;20029;-61
2022/12/03 08:59:14;;;;;;;17.15;9.60;;;;;;;;;;5055624;28;20025;-61
2022/12/03 09:01:45;;;;;;;16.27;10.38;;;;;;;;;;5055881;28;20025;-65
2022/12/03 09:04:27;;;;;;;15.65;9.90;;;;;;;;;;5062076;28;20033;-61
2022/12/03 09:06:54;;;;;;;15.18;9.63;;;;;;;;;;5084517;28;20047;-61
2022/12/03 09:09:20;;;;;;;13.57;9.50;;;;;;;;;;5063248;28;20111;-63
2022/12/03 09:11:46;;;;;;;14.68;9.98;;;;;;;;;;5077880;28;20051;-63
2022/12/03 09:14:12;;;;;;;14.02;9.43;;;;;;;;;;5083212;28;20056;-63
2022/12/03 09:16:38;;;;;;;13.77;9.90;;;;;;;;;;5083539;28;20032;-63
2022/12/03 09:19:05;;;;;;;13.35;9.52;;;;;;;;;;5095410;28;20051;-62
2022/12/03 09:21:31;;;;;;;15.52;9.90;;;;;;;;;;5095520;28;20482;-62
2022/12/03 09:23:56;;;;;;;14.38;9.77;;;;;;;;;;5095421;28;20028;-62
2022/12/03 09:26:22;;;;;;;15.15;10.18;;;;;;;;;;5095239;28;20032;-62
2022/12/03 09:28:48;;;;;;;13.00;9.35;;;;;;;;;;5078009;28;20024;-62
2022/12/03 09:31:14;;;;;;;14.48;9.30;;;;;;;;;;5076026;28;20100;-62
2022/12/03 09:33:40;;;;;;;15.35;9.43;;;;;;;;;;5073740;28;20103;-63
2022/12/03 09:36:06;;;;;;;14.18;9.40;;;;;;;;;;5072412;28;20075;-65
2022/12/03 09:38:31;;;;;;;13.05;9.30;;;;;;;;;;5070121;28;20562;-63
2022/12/03 09:40:58;;;;;;;13.95;8.95;;;;;;;;;;5070049;28;20026;-64
2022/12/03 09:43:26;;;;;;;12.93;10.02;;;;;;;;;;5071689;28;20025;-62
2022/12/03 09:45:52;;;;;;;12.63;9.02;;;;;;;;;;5085148;28;20020;-61
2022/12/03 09:48:18;;;;;;;13.73;9.88;;;;;;;;;;5076690;28;20028;-62
2022/12/03 09:50:44;;;;;;;14.65;9.90;;;;;;;;;;5088761;28;20066;-63
2022/12/03 09:53:17;;;;;;;14.23;9.43;;;;;;;;;;5074839;28;20051;-62
2022/12/03 09:55:44;;;;;;;11.25;7.85;;;;;;;;;;5071818;28;20564;-61
2022/12/03 09:58:12;;;;;;;14.13;9.38;;;;;;;;;;5081413;28;20101;-62
2022/12/03 10:00:37;;;;;;;12.95;9.65;;;;;;;;;;5082736;28;20032;-63
2022/12/03 10:03:05;;;;;;;13.98;9.35;;;;;;;;;;5077559;28;20113;-64
2022/12/03 10:05:32;;;;;;;16.10;9.65;;;;;;;;;;5077176;28;20082;-62
2022/12/03 10:08:04;;;;;;;14.20;9.98;;;;;;;;;;5069604;28;20028;-64
2022/12/03 10:10:29;;;;;;;15.90;9.43;;;;;;;;;;5071205;28;20028;-63
2022/12/03 10:12:55;;;;;;;12.25;9.10;;;;;;;;;;5074540;28;20024;-63
2022/12/03 10:15:22;;;;;;;14.30;9.40;;;;;;;;;;5082966;28;20028;-63
2022/12/03 10:17:50;;;;;;;15.18;9.75;;;;;;;;;;5076048;28;20032;-64
2022/12/03 10:20:18;;;;;;;14.15;9.52;;;;;;;;;;5094324;28;20024;-63
2022/12/03 10:22:47;;;;;;;14.43;9.30;;;;;;;;;;5094199;28;20024;-64
2022/12/03 10:25:16;;;;;;;13.07;8.95;;;;;;;;;;5075519;28;20049;-62
2022/12/03 10:27:53;;;;;;;13.10;9.55;;;;;;;;;;5072554;28;20039;-64
2022/12/03 10:30:21;;;;;;;12.20;9.27;;;;;;;;;;5072770;28;20024;-61
2022/12/03 10:32:49;;;;;;;13.73;9.80;;;;;;;;;;5073221;28;20033;-61
2022/12/03 10:35:23;;;;;;;12.93;9.07;;;;;;;;;;5072727;28;20024;-61
2022/12/03 10:38:05;;;;;;;12.90;9.30;;;;;;;;;;5073675;28;20083;-61
2022/12/03 10:40:34;;;;;;;13.02;9.63;;;;;;;;;;5072475;28;20033;-61
2022/12/03 10:43:12;;;;;;;14.20;9.15;;;;;;;;;;5073620;28;20044;-61
2022/12/03 10:45:38;;;;;;;11.50;8.60;;;;;;;;;;5073557;28;20032;-62
2022/12/03 10:48:18;;;;;;;14.43;9.27;;;;;;;;;;5072692;28;20024;-61
2022/12/03 10:51:00;;;;;;;12.90;9.40;;;;;;;;;;5073563;28;20523;-61
2022/12/03 10:53:28;;;;;;;11.50;9.15;;;;;;;;;;5055519;28;20396;-62
2022/12/03 10:55:58;;;;;;;14.27;9.60;;;;;;;;;;5073294;28;20035;-63
2022/12/03 10:58:27;;;;;;;14.57;10.00;;;;;;;;;;5056243;28;20464;-62
2022/12/03 11:00:54;;;;;;;13.93;9.15;;;;;;;;;;5073616;28;20033;-62
2022/12/03 11:03:26;;;;;;;12.70;8.80;;;;;;;;;;5055398;28;20020;-61
2022/12/03 11:05:53;;;;;;;11.75;8.85;;;;;;;;;;5073451;28;20028;-64
2022/12/03 11:08:41;;;;;;;14.00;9.27;;;;;;;;;;5073406;28;20081;-61
2022/12/03 11:11:12;;;;;;;11.48;9.07;;;;;;;;;;5072936;28;20062;-61
2022/12/03 11:13:37;;;;;;;13.45;8.45;;;;;;;;;;5073109;28;20025;-61
2022/12/03 11:16:05;;;;;;;13.13;9.07;;;;;;;;;;5072830;28;20086;-61
2022/12/03 11:18:36;;;;;;;12.48;9.38;;;;;;;;;;5069463;28;20045;-61
2022/12/03 11:21:02;;;;;;;13.15;9.30;;;;;;;;;;5072049;28;20035;-60
2022/12/03 11:23:45;;;;;;;12.57;8.85;;;;;;;;;;5072798;28;20025;-61
2022/12/03 11:26:12;;;;;;;11.68;9.07;;;;;;;;;;5072746;28;20044;-61
2022/12/03 11:28:51;;;;;;;14.55;9.63;;;;;;;;;;5054719;28;20556;-60
2022/12/03 11:31:35;;;;;;;14.30;9.60;;;;;;;;;;5072783;28;20024;-60
2022/12/03 11:34:16;;;;;;;12.95;9.45;;;;;;;;;;5072643;28;20028;-60
2022/12/03 11:37:09;;;;;;;12.88;9.07;;;;;;;;;;5072642;28;20040;-60
2022/12/03 11:39:50;;;;;;;13.82;9.05;;;;;;;;;;5077613;28;20483;-60
2022/12/03 11:42:25;;;;;;;13.27;9.55;;;;;;;;;;5082725;28;20039;-64
2022/12/03 11:45:07;;;;;;;12.70;9.18;;;;;;;;;;5052604;28;20021;-64
2022/12/03 11:47:42;;;;;;;13.90;9.52;;;;;;;;;;5052417;28;20072;-64
2022/12/03 11:50:20;;;;;;;13.30;9.25;;;;;;;;;;5053043;28;20027;-65
2022/12/03 11:52:48;;;;;;;12.52;9.07;;;;;;;;;;5073278;28;20020;-64
2022/12/03 11:55:37;;;;;;;12.88;9.32;;;;;;;;;;5072470;28;20020;-63
2022/12/03 11:58:28;;;;;;;14.63;9.73;;;;;;;;;;5072715;28;20016;-64
2022/12/03 12:00:55;;;;;;;14.23;9.30;;;;;;;;;;5044762;28;20085;-63
2022/12/03 12:03:21;;;;;;;12.20;9.27;;;;;;;;;;5072320;28;20039;-65
2022/12/03 12:06:17;;;;;;;12.82;8.95;;;;;;;;;;5054403;28;20028;-67
2022/12/03 12:08:59;;;;;;;16.60;11.75;;;;;;;;;;5072296;28;20035;-61
2022/12/03 12:11:32;;;;;;;19.33;13.27;;;;;;;;;;5072423;28;20033;-61
2022/12/03 12:14:06;;;;;;;19.25;14.30;;;;;;;;;;5054301;28;20473;-61
2022/12/03 12:16:52;;;;;;;19.70;15.15;;;;;;;;;;5072417;28;20036;-61
2022/12/03 12:19:42;;;;;;;24.33;15.02;;;;;;;;;;5072148;28;20381;-61
2022/12/03 12:22:25;;;;;;;22.83;14.47;;;;;;;;;;5072190;28;20036;-64
2022/12/03 12:24:56;;;;;;;19.52;13.85;;;;;;;;;;5072433;28;20048;-64
2022/12/03 12:27:36;;;;;;;19.90;14.88;;;;;;;;;;5072213;28;20375;-65
2022/12/03 12:30:14;;;;;;;19.15;12.98;;;;;;;;;;5072109;28;20040;-65
2022/12/03 12:32:47;;;;;;;19.42;12.65;;;;;;;;;;5080046;28;20044;-64
2022/12/03 12:35:22;;;;;;;20.92;12.98;;;;;;;;;;5060930;28;20364;-65
2022/12/03 12:37:52;;;;;;;16.60;12.10;;;;;;;;;;5079808;28;20024;-64
2022/12/03 12:40:20;;;;;;;15.20;11.52;;;;;;;;;;5080066;28;20145;-65
2022/12/03 12:42:56;;;;;;;14.68;10.98;;;;;;;;;;5081795;28;20048;-64
2022/12/03 12:45:27;;;;;;;16.63;12.40;;;;;;;;;;5070232;28;20025;-64
2022/12/03 12:48:08;;;;;;;16.75;11.95;;;;;;;;;;5070320;28;20066;-65
2022/12/03 12:50:39;;;;;;;17.58;11.52;;;;;;;;;;5082829;28;20028;-62
2022/12/03 12:53:08;;;;;;;;;;;;;;;;;;5085097;28;20020;-65
2022/12/03 12:55:34;;;;;;;15.10;10.85;;;;;;;;;;5074233;28;20019;-62
2022/12/03 12:58:05;;;;;;;15.50;11.75;;;;;;;;;;5070200;28;20146;-61
2022/12/03 13:00:30;;;;;;;17.42;11.65;;;;;;;;;;5070369;28;20025;-61
2022/12/03 13:03:01;;;;;;;14.68;11.02;;;;;;;;;;5070504;28;20380;-61
2022/12/03 13:05:54;;;;;;;19.50;12.20;;;;;;;;;;5070435;28;20025;-62
2022/12/03 13:08:36;;;;;;;17.15;11.50;;;;;;;;;;5080056;28;20044;-61
2022/12/03 13:11:02;;;;;;;15.00;10.80;;;;;;;;;;5070162;28;20032;-60
2022/12/03 13:13:30;;;;;;;16.08;11.10;;;;;;;;;;5073508;28;20032;-61
2022/12/03 13:16:01;;;;;;;18.33;11.55;;;;;;;;;;5073875;28;20494;-64
2022/12/03 13:18:47;;;;;;;16.75;11.23;;;;;;;;;;5073607;28;20048;-65
2022/12/03 13:21:22;;;;;;;15.23;11.00;;;;;;;;;;5073867;28;20095;-63
2022/12/03 13:23:51;;;;;;;16.10;10.77;;;;;;;;;;5073677;28;20660;-65
2022/12/03 13:26:23;;;;;;;15.02;11.50;;;;;;;;;;5073536;28;20035;-62
2022/12/03 13:28:49;;;;;;;15.07;10.93;;;;;;;;;;5073578;28;20025;-61
2022/12/03 13:31:21;;;;;;;13.73;10.52;;;;;;;;;;5073581;28;20060;-65
2022/12/03 13:33:47;;;;;;;14.98;10.60;;;;;;;;;;5073520;28;20027;-65
2022/12/03 13:36:15;;;;;;;13.77;10.52;;;;;;;;;;5073204;28;20039;-63
2022/12/03 13:38:42;;;;;;;15.77;11.48;;;;;;;;;;5073466;28;20029;-65
2022/12/03 13:42:37;;;;;;;16.17;11.18;;;;;;;;;;5073307;28;20082;-63
2022/12/03 13:43:58;;;;;;;16.73;10.93;;;;;;;;;;5073287;28;20035;-65
2022/12/03 13:46:27;;;;;;;15.45;10.93;;;;;;;;;;5073387;28;20039;-64
2022/12/03 13:48:52;;;;;;;19.25;13.15;;;;;;;;;;5073461;28;20035;-64
2022/12/03 13:51:30;;;;;;;27.65;14.90;;;;;;;;;;5073137;28;20024;-63
2022/12/03 13:53:57;;;;;;;27.25;14.30;;;;;;;;;;5072191;28;20040;-64
2022/12/03 13:56:31;;;;;;;21.60;14.60;;;;;;;;;;5071809;28;20056;-63
2022/12/03 13:58:59;;;;;;;18.55;11.45;;;;;;;;;;5072525;28;20029;-64
2022/12/03 14:01:27;;;;;;;16.83;11.20;;;;;;;;;;5073019;28;20423;-62
2022/12/03 14:03:53;;;;;;;15.82;11.23;;;;;;;;;;5072743;28;20016;-65
2022/12/03 14:06:19;;;;;;;15.75;10.75;;;;;;;;;;5072747;28;20039;-65
2022/12/03 14:08:44;;;;;;;16.88;11.85;;;;;;;;;;5072650;28;20032;-65
2022/12/03 14:12:24;;;;;;;19.55;12.02;;;;;;;;;;5072785;28;20032;-63
2022/12/03 14:13:58;;;;;;;18.67;11.82;;;;;;;;;;5072452;28;20108;-64
2022/12/03 14:16:24;;;;;;;15.35;11.05;;;;;;;;;;5072693;28;20111;-62
2022/12/03 14:18:49;;;;;;;15.57;11.07;;;;;;;;;;5072440;28;20051;-60
2022/12/03 14:21:15;;;;;;;15.70;11.10;;;;;;;;;;5072636;28;20036;-62
2022/12/03 14:23:40;;;;;;;18.92;11.30;;;;;;;;;;5072511;28;20071;-62
2022/12/03 14:26:06;;;;;;;16.60;11.65;;;;;;;;;;5072797;28;20036;-62
2022/12/03 14:28:32;;;;;;;15.43;11.60;;;;;;;;;;5054754;28;20062;-64
2022/12/03 14:30:57;;;;;;;17.83;11.35;;;;;;;;;;5072364;28;20024;-61
2022/12/03 14:33:23;;;;;;;20.23;11.23;;;;;;;;;;5069946;28;20040;-61
2022/12/03 14:35:52;;;;;;;16.08;11.02;;;;;;;;;;5072603;28;20384;-61
2022/12/03 14:38:17;;;;;;;19.17;11.60;;;;;;;;;;5072568;28;20400;-61
2022/12/03 14:40:43;;;;;;;18.05;11.10;;;;;;;;;;5072303;28;20033;-61
2022/12/03 14:43:09;;;;;;;19.77;11.68;;;;;;;;;;5072293;28;20419;-65
2022/12/03 14:45:35;;;;;;;14.63;10.43;;;;;;;;;;5070426;28;20040;-64
2022/12/03 14:48:00;;;;;;;16.00;10.65;;;;;;;;;;5071216;28;20016;-63
2022/12/03 14:50:26;;;;;;;15.20;10.32;;;;;;;;;;5071789;28;20024;-64
2022/12/03 14:52:52;;;;;;;16.95;11.07;;;;;;;;;;5072140;28;20025;-64
2022/12/03 14:55:17;;;;;;;16.42;11.23;;;;;;;;;;5071119;28;20391;-63